Time;durP1;ratioP1;P1;durP2;ratioP2;P2;SDS_P1;SDS_P2;PMS_P1;PMS_P2;Temp;Humidity;BMP_temperature;BMP_pressure;BME280_temperature;BME280_humidity;BME280_pressure;Samples;Min_cycle;Max_cycle;Signal;HPM_P1;HPM_P2
2022/12/14 00:01:23;;;;;;;9.00;5.40;;;;;;;0.38;100.00;99504.44;1692168;84;21094;-71
2022/12/14 00:03:51;;;;;;;9.00;6.08;;;;;;;0.37;100.00;99511.80;1690567;84;21245;-62
2022/12/14 00:06:22;;;;;;;10.80;6.53;;;;;;;0.36;100.00;99513.56;1689676;84;21482;-63
2022/12/14 00:08:50;;;;;;;9.80;5.75;;;;;;;0.36;100.00;99525.57;1688777;84;21423;-66
2022/12/14 00:11:24;;;;;;;11.03;7.12;;;;;;;0.36;100.00;99529.41;1689869;84;21067;-63
2022/12/14 00:13:59;;;;;;;10.90;6.15;;;;;;;0.35;100.00;99532.93;1689721;84;22392;-63
2022/12/14 00:16:29;;;;;;;10.08;6.40;;;;;;;0.33;100.00;99541.22;1689903;84;21831;-63
2022/12/14 00:18:58;;;;;;;11.90;7.33;;;;;;;0.34;100.00;99548.79;1689082;84;20921;-66
2022/12/14 00:21:26;;;;;;;8.33;5.80;;;;;;;0.34;100.00;99550.52;1689147;84;21550;-64
2022/12/14 00:23:53;;;;;;;10.28;6.72;;;;;;;0.38;100.00;99553.14;1689870;84;22194;-64
2022/12/14 00:26:25;;;;;;;10.80;6.85;;;;;;;0.39;100.00;99556.07;1690237;84;21034;-63
2022/12/14 00:28:54;;;;;;;10.85;7.20;;;;;;;0.39;100.00;99562.00;1688552;83;21135;-63
2022/12/14 00:31:21;;;;;;;10.53;7.12;;;;;;;0.38;100.00;99563.41;1689044;84;21045;-63
2022/12/14 00:33:49;;;;;;;11.33;6.92;;;;;;;0.40;100.00;99564.90;1689833;84;21063;-63
2022/12/14 00:36:16;;;;;;;10.13;6.37;;;;;;;0.40;100.00;99567.94;1689856;84;21057;-63
2022/12/14 00:38:43;;;;;;;12.95;8.10;;;;;;;0.39;100.00;99569.70;1689242;84;21032;-63
2022/12/14 00:41:11;;;;;;;10.28;7.15;;;;;;;0.39;100.00;99574.02;1689136;84;21172;-63
2022/12/14 00:43:38;;;;;;;10.53;7.08;;;;;;;0.35;100.00;99568.83;1689810;84;21558;-63
2022/12/14 00:46:07;;;;;;;9.33;6.55;;;;;;;0.33;100.00;99571.98;1689858;84;21025;-63
2022/12/14 00:48:35;;;;;;;11.53;7.45;;;;;;;0.33;100.00;99580.95;1689180;84;21011;-65
2022/12/14 00:51:02;;;;;;;10.98;7.50;;;;;;;0.32;100.00;99585.75;1689175;84;21607;-64
2022/12/14 00:53:29;;;;;;;10.45;6.97;;;;;;;0.31;100.00;99585.42;1689913;84;21162;-63
2022/12/14 00:56:01;;;;;;;10.90;7.60;;;;;;;0.31;100.00;99590.55;1689632;84;20865;-62
2022/12/14 00:58:29;;;;;;;10.65;7.35;;;;;;;0.31;100.00;99595.67;1689663;84;20937;-70
2022/12/14 01:01:04;;;;;;;11.78;7.03;;;;;;;0.31;100.00;99594.39;1688972;84;21102;-68
2022/12/14 01:03:31;;;;;;;8.93;6.45;;;;;;;0.32;100.00;99602.41;1689355;84;20963;-63
2022/12/14 01:05:58;;;;;;;11.68;7.42;;;;;;;0.32;100.00;99599.84;1689701;84;21870;-62
2022/12/14 01:08:33;;;;;;;11.80;7.78;;;;;;;0.34;100.00;99614.16;1689925;84;20908;-70
2022/12/14 01:10:55;;;;;;;10.45;7.15;;;;;;;0.36;100.00;99625.55;1687854;84;20963;-61
2022/12/14 01:13:22;;;;;;;9.50;6.40;;;;;;;0.35;100.00;99624.75;1689679;84;21193;-61
2022/12/14 01:15:51;;;;;;;9.53;6.62;;;;;;;0.36;100.00;99634.05;1689667;84;20916;-61
2022/12/14 01:18:19;;;;;;;9.45;6.45;;;;;;;0.37;100.00;99635.66;1690114;84;21847;-61
2022/12/14 01:20:46;;;;;;;9.50;5.70;;;;;;;0.31;100.00;99635.41;1689590;84;21055;-69
2022/12/14 01:23:15;;;;;;;9.35;5.78;;;;;;;0.33;100.00;99647.60;1689034;84;21027;-61
2022/12/14 01:25:42;;;;;;;9.73;6.10;;;;;;;0.32;100.00;99656.24;1689711;84;21055;-61
2022/12/14 01:28:09;;;;;;;8.38;5.90;;;;;;;0.30;100.00;99660.20;1689695;84;20920;-61
2022/12/14 01:30:39;;;;;;;9.05;6.12;;;;;;;0.29;100.00;99656.50;1689930;84;21149;-61
2022/12/14 01:33:06;;;;;;;9.20;5.92;;;;;;;0.29;100.00;99652.66;1688785;84;20991;-61
2022/12/14 01:35:33;;;;;;;8.53;5.35;;;;;;;0.23;100.00;99665.06;1689652;84;20943;-63
2022/12/14 01:38:00;;;;;;;8.88;5.97;;;;;;;0.22;100.00;99674.95;1689759;84;21026;-61
2022/12/14 01:40:29;;;;;;;9.25;6.30;;;;;;;0.22;100.00;99685.69;1689602;84;20943;-70
2022/12/14 01:42:58;;;;;;;8.73;5.53;;;;;;;0.21;100.00;99687.44;1688577;84;21194;-62
2022/12/14 01:45:25;;;;;;;8.38;5.33;;;;;;;0.21;100.00;99683.59;1689433;84;21018;-60
2022/12/14 01:47:57;;;;;;;9.23;6.50;;;;;;;0.18;100.00;99695.38;1689644;84;20995;-61
2022/12/14 01:50:34;;;;;;;9.93;6.33;;;;;;;0.15;100.00;99707.64;1689664;84;21612;-70
2022/12/14 01:53:04;;;;;;;9.03;6.15;;;;;;;0.08;100.00;99709.94;1689365;84;21014;-61
2022/12/14 01:55:35;;;;;;;9.03;6.05;;;;;;;0.05;100.00;99723.00;1690453;83;21245;-63
2022/12/14 01:58:08;;;;;;;9.13;5.45;;;;;;;0.07;100.00;99719.82;1666331;84;21064;-60
2022/12/14 02:00:36;;;;;;;7.60;4.90;;;;;;;-0.01;100.00;99735.03;1653318;84;21068;-70
2022/12/14 02:03:19;;;;;;;7.50;4.58;;;;;;;-0.07;100.00;99735.56;1690983;82;21350;-60
2022/12/14 02:05:50;;;;;;;6.83;4.40;;;;;;;-0.12;100.00;99744.08;1682746;83;21031;-63
2022/12/14 02:08:18;;;;;;;8.35;4.65;;;;;;;-0.18;100.00;99747.97;1682802;84;21569;-70
2022/12/14 02:10:46;;;;;;;8.15;5.03;;;;;;;-0.20;100.00;99750.30;1656001;86;21026;-62
2022/12/14 02:13:24;;;;;;;7.60;4.72;;;;;;;-0.21;100.00;99758.94;1628589;87;21066;-61
2022/12/14 02:15:51;;;;;;;9.70;4.90;;;;;;;-0.23;100.00;99761.60;1689408;84;20988;-69
2022/12/14 02:18:24;;;;;;;6.90;4.50;;;;;;;-0.23;100.00;99769.28;1689455;84;20908;-62
2022/12/14 02:21:33;;;;;;;8.05;4.42;;;;;;;-0.24;100.00;99779.20;1658483;84;21306;-61
2022/12/14 02:24:38;;;;;;;7.67;4.90;;;;;;;-0.25;100.00;99789.11;1689253;84;21089;-61
2022/12/14 02:27:23;;;;;;;8.00;4.72;;;;;;;-0.25;100.00;99793.76;1688949;83;21545;-63
2022/12/14 02:30:10;;;;;;;9.08;5.78;;;;;;;-0.29;100.00;99797.51;1675287;84;21042;-62
2022/12/14 02:33:14;;;;;;;8.28;5.35;;;;;;;-0.31;100.00;99808.80;1688615;83;20951;-71
2022/12/14 02:35:58;;;;;;;9.25;5.10;;;;;;;-0.33;100.00;99817.91;1689996;84;21229;-61
2022/12/14 02:39:04;;;;;;;8.48;5.67;;;;;;;-0.34;100.00;99815.45;1657983;84;21081;-63
2022/12/14 02:41:55;;;;;;;9.08;5.78;;;;;;;-0.36;100.00;99823.27;1689698;84;20995;-71
2022/12/14 02:44:32;;;;;;;;;;;;;;;-0.38;100.00;99831.55;1661213;86;21087;-62
2022/12/14 02:47:07;;;;;;;8.80;5.75;;;;;;;-0.38;100.00;99837.95;1658692;86;20427;-62
2022/12/14 02:49:52;;;;;;;9.23;5.92;;;;;;;-0.39;100.00;99841.43;1658188;86;22411;-61
2022/12/14 02:52:39;;;;;;;9.18;5.47;;;;;;;-0.39;100.00;99833.75;1658340;86;20916;-61
2022/12/14 02:55:29;;;;;;;8.80;5.33;;;;;;;-0.37;100.00;99845.17;1657846;86;21071;-61
2022/12/14 02:58:26;;;;;;;8.03;5.75;;;;;;;-0.39;100.00;99842.70;1658512;86;21509;-62
2022/12/14 03:00:54;;;;;;;9.23;6.08;;;;;;;-0.41;100.00;99863.80;1658523;86;21153;-61
2022/12/14 03:03:21;;;;;;;8.93;5.35;;;;;;;-0.44;100.00;99861.48;1637608;85;21474;-62
2022/12/14 03:06:01;;;;;;;8.83;5.47;;;;;;;-0.46;100.00;99862.05;1688975;84;21045;-65
2022/12/14 03:08:33;;;;;;;8.78;5.72;;;;;;;-0.45;100.00;99875.70;1689625;84;21496;-62
2022/12/14 03:11:03;;;;;;;8.95;5.53;;;;;;;-0.46;100.00;99871.48;1689978;84;20971;-62
2022/12/14 03:13:36;;;;;;;8.65;5.90;;;;;;;-0.50;100.00;99885.80;1688822;84;21027;-62
2022/12/14 03:16:29;;;;;;;8.50;5.65;;;;;;;-0.50;100.00;99896.52;1689435;84;21203;-63
2022/12/14 03:19:24;;;;;;;9.03;6.03;;;;;;;-0.52;100.00;99903.05;1689021;84;21583;-64
2022/12/14 03:21:58;;;;;;;8.83;5.72;;;;;;;-0.52;100.00;99899.69;1689729;84;20963;-61
2022/12/14 03:24:31;;;;;;;9.83;6.05;;;;;;;-0.54;100.00;99907.94;1688833;84;20963;-64
2022/12/14 03:27:03;;;;;;;8.08;5.50;;;;;;;-0.54;100.00;99901.53;1689717;84;21695;-72
2022/12/14 03:29:36;;;;;;;11.15;6.33;;;;;;;-0.55;100.00;99905.03;1655931;86;21027;-64
2022/12/14 03:32:09;;;;;;;8.48;5.50;;;;;;;-0.56;100.00;99929.83;1688862;84;21074;-66
2022/12/14 03:34:44;;;;;;;9.90;5.87;;;;;;;-0.58;100.00;99930.40;1689784;84;22206;-64
2022/12/14 03:37:18;;;;;;;7.92;5.15;;;;;;;-0.58;100.00;99935.98;1688716;84;21038;-64
2022/12/14 03:39:45;;;;;;;7.65;5.40;;;;;;;-0.56;100.00;99948.22;1689145;84;20991;-71
2022/12/14 03:42:23;;;;;;;8.83;5.75;;;;;;;-0.57;100.00;99954.25;1689679;84;21758;-64
2022/12/14 03:45:25;;;;;;;8.03;5.03;;;;;;;-0.57;100.00;99965.77;1689320;84;21065;-63
2022/12/14 03:48:30;;;;;;;9.53;6.08;;;;;;;-0.58;100.00;99967.52;1690010;84;21102;-64
2022/12/14 03:51:18;;;;;;;9.03;6.30;;;;;;;-0.57;100.00;99977.29;1684981;84;22316;-64
2022/12/14 03:53:53;;;;;;;8.50;5.37;;;;;;;-0.56;100.00;99975.91;1689735;84;21126;-64
2022/12/14 03:56:44;;;;;;;10.15;6.10;;;;;;;-0.54;100.00;99991.95;1689029;84;21239;-64
2022/12/14 03:59:19;;;;;;;7.65;4.80;;;;;;;-0.54;100.00;99986.02;1668787;84;21015;-64
2022/12/14 04:02:01;;;;;;;8.68;5.55;;;;;;;-0.55;100.00;99988.23;1666816;85;21002;-64
2022/12/14 04:04:51;;;;;;;9.38;5.22;;;;;;;-0.54;100.00;99991.14;1670775;84;21136;-66
2022/12/14 04:07:38;;;;;;;9.55;6.25;;;;;;;-0.55;100.00;99994.64;1689283;84;20913;-67
2022/12/14 04:18:58;;;;;;;8.55;5.42;;;;;;;-0.56;100.00;100007.09;1689408;84;21047;-72
2022/12/14 04:21:52;;;;;;;8.90;5.78;;;;;;;-0.57;100.00;100008.02;1689744;84;21010;-64
2022/12/14 04:27:47;;;;;;;8.70;5.42;;;;;;;-0.60;100.00;100020.59;1689421;84;21012;-67
2022/12/14 04:30:14;;;;;;;8.88;5.50;;;;;;;-0.63;100.00;100020.83;1690169;84;20937;-62
2022/12/14 04:32:54;;;;;;;9.48;4.97;;;;;;;-0.62;100.00;100030.59;1688888;84;20986;-64
2022/12/14 04:35:37;;;;;;;8.20;5.12;;;;;;;-0.65;100.00;100033.38;1689587;84;21384;-63
2022/12/14 04:38:27;;;;;;;9.40;5.70;;;;;;;-0.64;100.00;100040.16;1689631;84;21246;-69
2022/12/14 04:40:57;;;;;;;9.00;5.97;;;;;;;-0.65;100.00;100044.91;1689328;84;21478;-63
2022/12/14 04:43:28;;;;;;;9.75;6.15;;;;;;;-0.65;100.00;100051.30;1689893;84;21119;-63
2022/12/14 04:46:08;;;;;;;9.43;5.60;;;;;;;-0.63;100.00;100063.06;1688868;84;20901;-63
2022/12/14 04:48:49;;;;;;;9.78;5.40;;;;;;;-0.63;100.00;100068.19;1689279;84;21001;-63
2022/12/14 04:51:39;;;;;;;7.85;5.05;;;;;;;-0.62;100.00;100078.77;1689902;84;21163;-65
2022/12/14 04:54:11;;;;;;;8.88;5.95;;;;;;;-0.63;100.00;100077.61;1689175;84;20889;-65
2022/12/14 04:56:44;;;;;;;8.95;5.50;;;;;;;-0.65;100.00;100094.81;1689984;84;21067;-64
2022/12/14 04:59:11;;;;;;;8.48;5.22;;;;;;;-0.67;100.00;100094.13;1689478;84;21003;-64
2022/12/14 05:01:49;;;;;;;8.73;5.40;;;;;;;-0.69;100.00;100103.66;1689769;84;21087;-64
2022/12/14 05:04:53;;;;;;;8.60;5.20;;;;;;;-0.70;100.00;100109.25;1689032;84;21129;-63
2022/12/14 05:07:46;;;;;;;7.78;5.40;;;;;;;-0.70;100.00;100104.13;1687940;84;21000;-64
2022/12/14 05:10:24;;;;;;;8.48;5.12;;;;;;;-0.74;100.00;100092.02;1689196;84;21028;-64
2022/12/14 05:12:59;;;;;;;8.53;4.92;;;;;;;-0.82;100.00;100083.29;1689324;84;20933;-70
2022/12/14 05:15:37;;;;;;;8.23;4.80;;;;;;;-0.91;100.00;100094.19;1689638;83;21039;-62
2022/12/14 05:18:04;;;;;;;8.55;5.25;;;;;;;-1.03;100.00;100099.28;1689354;84;21153;-62
2022/12/14 05:20:32;;;;;;;9.30;5.90;;;;;;;-1.16;100.00;100109.26;1689647;84;21560;-66
2022/12/14 05:23:00;;;;;;;8.40;5.22;;;;;;;-1.27;100.00;100113.87;1689630;84;21428;-62
2022/12/14 05:25:27;;;;;;;9.28;5.75;;;;;;;-1.40;100.00;100124.61;1689732;84;21482;-62
2022/12/14 05:27:55;;;;;;;8.75;5.40;;;;;;;-1.48;100.00;100131.11;1690127;82;21019;-63
2022/12/14 05:30:22;;;;;;;9.55;5.50;;;;;;;-1.52;100.00;100141.63;1692335;83;21098;-62
2022/12/14 05:32:49;;;;;;;9.30;5.60;;;;;;;-1.53;100.00;100149.77;1696309;83;21003;-68
2022/12/14 05:35:16;;;;;;;9.83;5.72;;;;;;;-1.50;100.00;100153.39;1690989;83;21090;-63
2022/12/14 05:37:43;;;;;;;10.45;6.30;;;;;;;-1.45;100.00;100162.01;1694890;83;20947;-63
2022/12/14 05:40:12;;;;;;;9.95;5.92;;;;;;;-1.35;100.00;100171.14;1703178;83;21085;-65
2022/12/14 05:42:39;;;;;;;9.80;6.47;;;;;;;-1.28;100.00;100173.62;1705471;83;21288;-63
2022/12/14 05:45:09;;;;;;;9.35;6.10;;;;;;;-1.21;100.00;100188.88;1689824;83;21474;-62
2022/12/14 05:47:37;;;;;;;11.50;6.70;;;;;;;-1.14;100.00;100195.63;1665266;84;20947;-63
2022/12/14 05:50:05;;;;;;;11.53;7.25;;;;;;;-1.06;100.00;100203.57;1689972;84;21018;-62
2022/12/14 05:52:32;;;;;;;11.90;7.50;;;;;;;-1.01;100.00;100206.17;1656341;84;21041;-64
2022/12/14 05:55:01;;;;;;;14.35;8.45;;;;;;;-0.95;100.00;100210.02;1657383;86;21896;-63
2022/12/14 05:57:30;;;;;;;12.73;8.50;;;;;;;-0.90;100.00;100217.38;1656860;84;21543;-68
2022/12/14 05:59:57;;;;;;;13.53;8.48;;;;;;;-0.85;100.00;100221.70;1688407;82;21033;-64
2022/12/14 06:02:25;;;;;;;12.95;8.85;;;;;;;-0.79;100.00;100222.55;1686625;84;21067;-62
2022/12/14 06:04:52;;;;;;;13.65;9.15;;;;;;;-0.74;100.00;100225.58;1656297;84;21042;-64
2022/12/14 06:07:20;;;;;;;14.07;9.05;;;;;;;-0.70;100.00;100225.70;1631013;86;21181;-63
2022/12/14 06:09:47;;;;;;;12.68;8.28;;;;;;;-0.65;100.00;100227.92;1651198;84;21584;-63
2022/12/14 06:12:14;;;;;;;14.10;9.20;;;;;;;-0.62;100.00;100229.80;1653759;84;21193;-63
2022/12/14 06:14:42;;;;;;;13.90;9.10;;;;;;;-0.59;100.00;100233.42;1651550;84;21024;-62
2022/12/14 06:17:10;;;;;;;13.83;8.90;;;;;;;-0.54;100.00;100240.77;1650068;84;21015;-64
2022/12/14 06:19:38;;;;;;;14.80;10.03;;;;;;;-0.52;100.00;100242.30;1647648;84;22332;-68
2022/12/14 06:22:06;;;;;;;12.90;7.95;;;;;;;-0.49;100.00;100248.94;1651737;84;21114;-62
2022/12/14 06:24:34;;;;;;;13.13;8.73;;;;;;;-0.47;100.00;100256.03;1629995;86;21080;-62
2022/12/14 06:27:02;;;;;;;12.35;8.03;;;;;;;-0.44;100.00;100253.25;1652163;84;21035;-69
2022/12/14 06:29:32;;;;;;;13.35;8.80;;;;;;;-0.41;100.00;100261.19;1652462;84;21093;-65
2022/12/14 06:32:00;;;;;;;13.38;8.98;;;;;;;-0.40;100.00;100275.14;1652917;84;21636;-64
2022/12/14 06:34:27;;;;;;;15.75;9.88;;;;;;;-0.37;100.00;100277.48;1609104;86;20999;-62
2022/12/14 06:36:54;;;;;;;13.38;9.23;;;;;;;-0.35;100.00;100288.42;1656376;86;21067;-68
2022/12/14 06:39:21;;;;;;;14.85;9.85;;;;;;;-0.32;100.00;100284.83;1655075;86;21043;-69
2022/12/14 06:41:52;;;;;;;13.22;9.10;;;;;;;-0.30;100.00;100283.80;1643682;84;21437;-62
2022/12/14 06:44:19;;;;;;;14.93;9.80;;;;;;;-0.27;100.00;100289.95;1655393;86;21274;-62
2022/12/14 06:46:47;;;;;;;12.70;8.63;;;;;;;-0.21;100.00;100287.42;1656262;84;21076;-63
2022/12/14 06:49:14;;;;;;;13.05;8.80;;;;;;;-0.18;100.00;100284.64;1628875;87;21577;-62
2022/12/14 06:51:43;;;;;;;14.68;9.58;;;;;;;-0.14;100.00;100281.39;1632559;86;21006;-65
2022/12/14 06:54:11;;;;;;;14.18;9.45;;;;;;;-0.11;100.00;100286.30;1654791;86;21003;-64
2022/12/14 06:56:38;;;;;;;15.50;9.85;;;;;;;-0.08;100.00;100286.85;1690146;83;21105;-63
2022/12/14 06:59:07;;;;;;;16.48;10.63;;;;;;;-0.04;100.00;100293.41;1680059;84;20967;-63
2022/12/14 07:01:35;;;;;;;14.15;9.55;;;;;;;0.02;100.00;100302.38;1680442;85;21070;-67
2022/12/14 07:04:02;;;;;;;15.70;9.65;;;;;;;0.09;100.00;100303.55;1680706;84;21173;-63
2022/12/14 07:06:38;;;;;;;13.48;9.43;;;;;;;0.16;100.00;100303.92;1680766;84;21079;-63
2022/12/14 07:09:07;;;;;;;13.50;9.03;;;;;;;0.21;100.00;100306.47;1680846;84;21896;-64
2022/12/14 07:11:34;;;;;;;14.35;9.13;;;;;;;0.30;100.00;100313.12;1680747;84;20999;-64
2022/12/14 07:14:04;;;;;;;12.65;8.28;;;;;;;0.36;100.00;100313.95;1681189;85;21123;-64
2022/12/14 07:16:31;;;;;;;12.35;7.30;;;;;;;0.40;100.00;100317.91;1681063;84;21102;-64
2022/12/14 07:18:59;;;;;;;12.43;8.10;;;;;;;0.43;100.00;100321.53;1680626;85;21000;-65
2022/12/14 07:21:26;;;;;;;13.28;8.58;;;;;;;0.46;100.00;100327.72;1680788;85;22115;-65
2022/12/14 07:23:53;;;;;;;10.50;6.45;;;;;;;0.46;100.00;100330.28;1680877;85;21536;-62
2022/12/14 07:26:23;;;;;;;9.58;6.22;;;;;;;0.48;100.00;100328.40;1681127;84;21047;-62
2022/12/14 07:28:50;;;;;;;11.45;6.70;;;;;;;0.46;100.00;100337.97;1680776;85;21568;-66
2022/12/14 07:31:25;;;;;;;9.95;6.42;;;;;;;0.48;100.00;100345.06;1681429;85;21020;-67
2022/12/14 07:33:57;;;;;;;10.03;6.87;;;;;;;0.69;100.00;100353.71;1663395;86;21648;-61
2022/12/14 07:36:25;;;;;;;8.98;5.67;;;;;;;1.09;100.00;100360.08;1681216;84;21565;-63
2022/12/14 07:38:54;;;;;;;8.78;5.65;;;;;;;1.39;100.00;100360.72;1680164;84;21007;-71
2022/12/14 07:41:25;;;;;;;9.00;5.80;;;;;;;1.63;100.00;100369.50;1680345;85;21491;-64
2022/12/14 07:43:53;;;;;;;9.45;5.72;;;;;;;1.91;100.00;100369.40;1680692;85;21968;-60
2022/12/14 07:46:23;;;;;;;8.55;5.55;;;;;;;2.14;100.00;100370.09;1680981;84;21286;-59
2022/12/14 07:48:53;;;;;;;9.10;6.00;;;;;;;2.33;100.00;100379.69;1681203;85;21579;-63
2022/12/14 07:51:23;;;;;;;7.87;5.33;;;;;;;2.30;100.00;100379.94;1681104;84;21838;-59
2022/12/14 07:53:50;;;;;;;6.30;3.77;;;;;;;2.09;100.00;100387.66;1681634;85;21051;-59
2022/12/14 07:56:20;;;;;;;6.90;4.20;;;;;;;1.84;100.00;100391.39;1681596;84;21599;-62
2022/12/14 07:58:47;;;;;;;6.40;3.75;;;;;;;1.56;100.00;100392.31;1681855;85;21250;-71
2022/12/14 08:01:23;;;;;;;5.90;3.52;;;;;;;1.34;100.00;100400.08;1680558;84;20959;-60
2022/12/14 08:03:52;;;;;;;5.72;2.80;;;;;;;1.14;100.00;100401.16;1681920;84;21010;-60
2022/12/14 08:06:20;;;;;;;5.50;3.25;;;;;;;0.94;100.00;100409.56;1681063;84;21530;-60
2022/12/14 08:08:47;;;;;;;6.58;2.92;;;;;;;0.69;100.00;100417.84;1678280;84;20936;-69
2022/12/14 08:11:16;;;;;;;5.62;2.98;;;;;;;0.52;100.00;100414.44;1678342;85;22213;-61
2022/12/14 08:13:43;;;;;;;5.75;2.60;;;;;;;0.39;100.00;100430.39;1679246;84;21257;-61
2022/12/14 08:16:12;;;;;;;5.80;3.27;;;;;;;0.25;100.00;100424.98;1679316;84;20948;-61
2022/12/14 08:18:40;;;;;;;5.67;3.12;;;;;;;0.18;100.00;100429.73;1679206;85;21565;-60
2022/12/14 08:21:09;;;;;;;5.85;3.65;;;;;;;0.43;100.00;100431.33;1678272;84;21644;-61
2022/12/14 08:23:36;;;;;;;6.37;3.30;;;;;;;0.88;100.00;100437.00;1679639;84;21842;-60
2022/12/14 08:26:04;;;;;;;5.12;2.87;;;;;;;1.44;100.00;100431.82;1679187;85;20987;-61
2022/12/14 08:28:34;;;;;;;4.45;2.50;;;;;;;2.07;100.00;100430.20;1679032;84;21550;-59
2022/12/14 08:31:13;;;;;;;4.25;2.52;;;;;;;2.64;100.00;100428.94;1677934;84;21466;-61
2022/12/14 08:33:40;;;;;;;5.53;3.00;;;;;;;3.06;100.00;100438.34;1667579;84;21131;-59
2022/12/14 08:36:09;;;;;;;4.25;2.30;;;;;;;3.47;100.00;100443.83;1663644;85;21803;-60
2022/12/14 08:38:37;;;;;;;4.60;2.50;;;;;;;3.62;100.00;100445.07;1654732;86;20996;-72
2022/12/14 08:41:13;;;;;;;4.37;2.20;;;;;;;3.49;100.00;100462.56;1673550;85;21306;-62
2022/12/14 08:43:40;;;;;;;4.13;2.17;;;;;;;3.27;100.00;100457.61;1674423;85;20991;-60
2022/12/14 08:46:08;;;;;;;4.33;2.20;;;;;;;3.00;100.00;100456.91;1654542;86;21272;-61
2022/12/14 08:48:36;;;;;;;4.70;2.55;;;;;;;2.72;100.00;100463.52;1673697;85;21067;-71
2022/12/14 08:51:07;;;;;;;5.22;2.55;;;;;;;2.58;100.00;100474.98;1673381;84;20996;-67
2022/12/14 08:53:36;;;;;;;4.22;2.22;;;;;;;2.74;100.00;100475.81;1674182;85;21275;-60
2022/12/14 08:56:11;;;;;;;4.70;2.67;;;;;;;3.17;100.00;100475.12;1674472;85;21893;-60
2022/12/14 08:58:40;;;;;;;4.63;2.10;;;;;;;3.70;100.00;100474.53;1672711;85;21402;-63
2022/12/14 09:01:13;;;;;;;4.07;2.13;;;;;;;4.11;100.00;100476.88;1659556;86;21536;-62
2022/12/14 09:03:43;;;;;;;3.90;1.93;;;;;;;4.35;100.00;100478.22;1673885;85;21846;-59
2022/12/14 09:06:17;;;;;;;3.30;1.87;;;;;;;4.47;100.00;100483.59;1632290;87;21235;-65
2022/12/14 09:08:45;;;;;;;3.20;1.90;;;;;;;4.62;100.00;100492.55;1689600;84;21352;-76
2022/12/14 09:11:14;;;;;;;4.20;2.17;;;;;;;4.74;100.00;100502.23;1689651;84;39533;-61
2022/12/14 09:13:43;;;;;;;3.47;1.97;;;;;;;4.82;100.00;100501.53;1689861;84;21294;-60
2022/12/14 09:16:14;;;;;;;3.50;2.00;;;;;;;4.93;100.00;100505.25;1689160;84;21198;-80
2022/12/14 09:21:30;;;;;;;4.43;2.00;;;;;;;5.09;100.00;100505.46;1833732;77;22682;-60
2022/12/14 09:24:00;;;;;;;4.10;2.20;;;;;;;5.02;100.00;100513.92;1786284;80;20987;-64
2022/12/14 09:26:27;;;;;;;4.23;2.13;;;;;;;4.92;100.00;100514.41;1786671;79;21280;-82
2022/12/14 09:28:56;;;;;;;3.53;1.83;;;;;;;4.84;100.00;100518.98;1754573;81;21150;-66
2022/12/14 09:31:25;;;;;;;5.37;2.13;;;;;;;4.77;100.00;100523.07;1754867;81;21215;-63
2022/12/14 09:33:52;;;;;;;4.67;1.90;;;;;;;4.66;100.00;100516.77;1753643;81;21084;-62
2022/12/14 09:36:21;;;;;;;4.20;2.43;;;;;;;4.62;100.00;100529.14;1754818;81;21137;-63
2022/12/14 09:38:48;;;;;;;4.93;2.53;;;;;;;4.62;100.00;100522.23;1754114;80;21244;-62
2022/12/14 09:41:42;;;;;;;3.97;2.00;;;;;;;4.63;100.00;100532.08;1754454;81;21888;-62
2022/12/14 09:44:26;;;;;;;4.30;2.50;;;;;;;4.60;100.00;100530.58;1754821;81;21083;-63
2022/12/14 09:47:19;;;;;;;4.97;2.40;;;;;;;4.53;100.00;100534.66;1754882;81;22571;-63
2022/12/14 09:50:02;;;;;;;5.13;2.90;;;;;;;4.53;100.00;100539.01;1754662;81;21706;-70
2022/12/14 09:52:41;;;;;;;3.70;2.00;;;;;;;4.57;100.00;100543.75;1754100;81;21336;-62
2022/12/14 09:55:34;;;;;;;4.33;2.00;;;;;;;4.58;100.00;100551.86;1754751;81;21408;-62
2022/12/14 09:58:25;;;;;;;3.90;2.17;;;;;;;4.61;100.00;100552.05;1742387;81;21260;-61
2022/12/14 10:01:22;;;;;;;4.87;2.60;;;;;;;4.77;100.00;100552.32;1754511;81;21230;-64
2022/12/14 10:04:01;;;;;;;3.87;2.20;;;;;;;4.85;100.00;100559.37;1754449;81;22407;-62
2022/12/14 10:06:55;;;;;;;5.30;2.13;;;;;;;4.81;100.00;100556.25;1754668;81;21205;-72
2022/12/14 10:09:44;;;;;;;4.67;2.20;;;;;;;4.80;100.00;100561.54;1754684;81;21256;-63
2022/12/14 10:12:31;;;;;;;3.80;2.10;;;;;;;4.77;100.00;100561.81;1754152;81;21774;-60
2022/12/14 10:15:17;;;;;;;4.67;2.17;;;;;;;4.82;100.00;100566.91;1754616;81;21181;-62
2022/12/14 10:18:02;;;;;;;4.22;2.15;;;;;;;4.87;100.00;100569.89;1754501;81;21535;-62
2022/12/14 10:20:40;;;;;;;3.97;2.37;;;;;;;4.91;100.00;100578.66;1750941;81;21130;-64
2022/12/14 10:23:14;;;;;;;3.93;2.27;;;;;;;4.96;100.00;100585.51;1778357;80;21199;-61
2022/12/14 10:25:42;;;;;;;4.67;2.40;;;;;;;4.89;100.00;100582.69;1745571;81;21236;-65
2022/12/14 10:28:27;;;;;;;4.10;2.20;;;;;;;4.92;100.00;100590.61;1702125;82;21230;-62
2022/12/14 10:30:56;;;;;;;4.33;2.25;;;;;;;4.86;100.00;100591.52;1743721;81;21269;-61
2022/12/14 10:33:30;;;;;;;3.53;2.00;;;;;;;4.81;100.00;100595.45;1777253;78;21138;-68
2022/12/14 10:36:26;;;;;;;4.90;2.60;;;;;;;4.80;100.00;100592.53;1743043;82;21286;-61
2022/12/14 10:39:08;;;;;;;3.07;2.00;;;;;;;4.85;100.00;100590.38;1745791;81;21180;-62
2022/12/14 10:41:42;;;;;;;4.95;2.40;;;;;;;5.00;100.00;100595.90;1745202;81;21341;-61
2022/12/14 10:44:42;;;;;;;4.60;2.50;;;;;;;5.03;100.00;100596.92;1778244;80;21134;-63
2022/12/14 10:47:20;;;;;;;11.87;5.97;;;;;;;4.99;100.00;100605.42;1776767;80;21176;-63
2022/12/14 10:50:06;;;;;;;6.17;3.87;;;;;;;4.95;100.00;100608.42;1745981;81;21903;-62
2022/12/14 10:52:37;;;;;;;6.13;2.80;;;;;;;4.84;99.67;100608.09;1745180;81;21710;-61
2022/12/14 10:55:12;;;;;;;4.75;2.60;;;;;;;4.70;99.05;100622.25;1778062;80;21003;-67
2022/12/14 10:57:39;;;;;;;5.97;3.10;;;;;;;4.54;100.00;100625.34;1778349;80;21006;-61
2022/12/14 11:00:13;;;;;;;6.90;4.03;;;;;;;4.37;100.00;100630.70;1745433;81;21479;-60
2022/12/14 11:02:46;;;;;;;6.22;3.37;;;;;;;4.14;100.00;100626.25;1777901;80;20924;-65
2022/12/14 11:05:48;;;;;;;5.63;3.57;;;;;;;3.95;100.00;100633.13;1746289;80;21086;-61
2022/12/14 11:08:43;;;;;;;5.20;2.83;;;;;;;3.72;100.00;100638.46;1778134;80;21201;-65
2022/12/14 11:11:17;;;;;;;13.65;6.62;;;;;;;3.46;100.00;100648.84;1745690;81;21055;-62
2022/12/14 11:13:51;;;;;;;12.90;5.40;;;;;;;3.21;100.00;100654.72;1745053;81;21046;-67
2022/12/14 11:16:37;;;;;;;4.25;2.22;;;;;;;3.19;100.00;100655.80;1778299;80;20995;-61
2022/12/14 11:19:16;;;;;;;3.98;2.27;;;;;;;3.28;100.00;100661.48;1778437;80;21596;-62
2022/12/14 11:21:43;;;;;;;3.47;2.12;;;;;;;3.45;100.00;100667.36;1754377;81;22136;-61
2022/12/14 11:24:25;;;;;;;5.33;3.10;;;;;;;3.58;100.00;100668.44;1756021;80;20967;-62
2022/12/14 11:26:56;;;;;;;4.75;2.47;;;;;;;3.66;100.00;100668.61;1758063;81;24909;-62
2022/12/14 11:29:28;;;;;;;5.85;2.37;;;;;;;3.74;100.00;100672.65;1737900;82;21544;-61
2022/12/14 11:31:55;;;;;;;4.65;2.27;;;;;;;3.83;100.00;100674.95;1736687;82;21010;-62
2022/12/14 11:34:37;;;;;;;4.87;2.83;;;;;;;3.95;100.00;100681.65;1738327;82;21081;-61
2022/12/14 11:37:25;;;;;;;5.65;3.10;;;;;;;3.95;100.00;100680.36;1737898;82;21408;-66
2022/12/14 11:39:58;;;;;;;4.30;2.33;;;;;;;3.84;100.00;100685.13;1738043;82;21088;-61
2022/12/14 11:42:25;;;;;;;5.50;2.50;;;;;;;3.71;100.00;100689.66;1738341;82;21516;-61
2022/12/14 11:44:54;;;;;;;5.33;2.72;;;;;;;3.61;100.00;100690.91;1737651;82;21529;-64
2022/12/14 11:47:28;;;;;;;4.67;2.47;;;;;;;3.51;100.00;100692.61;1738168;82;21548;-67
2022/12/14 11:49:56;;;;;;;5.30;2.30;;;;;;;3.41;100.00;100696.44;1738501;82;21315;-61
2022/12/14 11:52:26;;;;;;;4.60;2.45;;;;;;;3.32;100.00;100701.51;1738360;81;21233;-65
2022/12/14 11:55:07;;;;;;;4.37;2.08;;;;;;;3.22;100.00;100697.59;1710751;82;21540;-59
2022/12/14 11:57:39;;;;;;;4.33;1.92;;;;;;;3.21;100.00;100701.56;1738262;82;22543;-60
2022/12/14 12:00:09;;;;;;;4.85;2.60;;;;;;;3.24;100.00;100695.69;1737403;82;20938;-61
2022/12/14 12:02:40;;;;;;;4.58;2.40;;;;;;;3.28;100.00;100697.55;1701264;82;21017;-61
2022/12/14 12:05:20;;;;;;;4.00;2.08;;;;;;;3.28;100.00;100701.41;1709246;81;21841;-63
2022/12/14 12:07:54;;;;;;;4.90;2.05;;;;;;;3.25;100.00;100706.81;1757307;81;21000;-62